Time;durP1;ratioP1;P1;durP2;ratioP2;P2;SDS_P1;SDS_P2;PMS_P1;PMS_P2;Temp;Humidity;BMP_temperature;BMP_pressure;BME280_temperature;BME280_humidity;BME280_pressure;Samples;Min_cycle;Max_cycle;Signal;HPM_P1;HPM_P2
2023/04/24 00:02:01;;;;;;;;;;;;;;;13.82;93.97;99043.63;5093338;28;20014;-58
2023/04/24 00:04:27;;;;;;;;;;;;;;;13.83;94.52;99034.69;5092336;28;19912;-58
2023/04/24 00:06:56;;;;;;;;;;;;;;;13.82;94.38;99026.75;5093343;28;20615;-58
2023/04/24 00:09:22;;;;;;;;;;;;;;;13.86;94.13;99034.50;5091597;28;20022;-58
2023/04/24 00:11:47;;;;;;;;;;;;;;;13.89;94.70;99033.41;5094053;28;19970;-58
2023/04/24 00:14:12;;;;;;;;;;;;;;;13.88;95.23;99039.75;5088681;28;19924;-58
2023/04/24 00:16:37;;;;;;;;;;;;;;;13.86;94.38;99022.94;5091972;28;19924;-58
2023/04/24 00:19:03;;;;;;;;;;;;;;;13.92;94.53;99028.75;5092743;28;20299;-58
2023/04/24 00:21:28;;;;;;;;;;;;;;;13.97;95.06;99034.69;5089881;28;19920;-58
2023/04/24 00:23:53;;;;;;;;;;;;;;;13.89;94.69;99026.28;5094099;28;19916;-58
2023/04/24 00:26:19;;;;;;;;;;;;;;;13.92;94.85;99027.91;5093172;28;20409;-57
2023/04/24 00:28:44;;;;;;;;;;;;;;;13.92;94.92;99025.25;5092293;28;19920;-58
2023/04/24 00:31:09;;;;;;;;;;;;;;;13.96;94.72;99029.44;5094021;28;19912;-58
2023/04/24 00:33:34;;;;;;;;;;;;;;;13.99;94.81;99034.56;5092760;28;19943;-58
2023/04/24 00:36:00;;;;;;;;;;;;;;;13.90;95.11;99030.69;5090594;28;19971;-58
2023/04/24 00:38:25;;;;;;;;;;;;;;;13.93;94.71;99034.97;5072896;28;19920;-58
2023/04/24 00:40:50;;;;;;;;;;;;;;;13.93;94.69;99030.50;5087890;28;19970;-58
2023/04/24 00:43:16;;;;;;;;;;;;;;;13.94;95.07;99025.97;5092358;28;19916;-58
2023/04/24 00:45:41;;;;;;;;;;;;;;;13.87;94.92;99030.00;5092212;28;19920;-58
2023/04/24 00:48:07;;;;;;;;;;;;;;;13.83;94.80;99033.81;5092942;28;19912;-57
2023/04/24 00:50:33;;;;;;;;;;;;;;;13.88;95.44;99037.06;5098260;28;19935;-58
2023/04/24 00:52:58;;;;;;;;;;;;;;;13.94;95.44;99031.31;5097581;28;19920;-58
2023/04/24 00:55:24;;;;;;;;;;;;;;;13.91;95.23;99031.53;5096836;28;20065;-58
2023/04/24 00:57:50;;;;;;;;;;;;;;;13.87;94.72;99038.88;5094264;28;19919;-58
2023/04/24 01:00:16;;;;;;;;;;;;;;;13.93;95.21;99040.31;5096405;28;19931;-58
2023/04/24 01:02:46;;;;;;;;;;;;;;;13.97;94.88;99042.69;5095594;28;19920;-58
2023/04/24 01:05:12;;;;;;;;;;;;;;;14.00;94.76;99036.31;5086006;28;19916;-58
2023/04/24 01:07:38;;;;;;;;;;;;;;;13.96;94.65;99035.66;5098601;28;20563;-58
2023/04/24 01:10:03;;;;;;;;;;;;;;;13.94;94.76;99040.22;5095752;28;19916;-58
2023/04/24 01:12:29;;;;;;;;;;;;;;;13.98;95.49;99032.88;5096728;28;20001;-58
2023/04/24 01:14:55;;;;;;;;;;;;;;;13.92;96.19;99039.44;5094988;28;20010;-58
2023/04/24 01:17:20;;;;;;;;;;;;;;;13.94;96.52;99039.34;5094801;28;20036;-58
2023/04/24 01:19:46;;;;;;;;;;;;;;;13.94;96.74;99042.03;5077338;28;20001;-58
2023/04/24 01:22:12;;;;;;;;;;;;;;;13.90;97.55;99033.34;5095457;28;20397;-58
2023/04/24 01:24:38;;;;;;;;;;;;;;;13.90;97.13;99036.03;5094607;28;19924;-58
2023/04/24 01:27:03;;;;;;;;;;;;;;;13.88;98.17;99034.38;5095127;28;19912;-58
2023/04/24 01:29:28;;;;;;;;;;;;;;;13.88;98.13;99042.41;5095178;28;20359;-58
2023/04/24 01:31:54;;;;;;;;;;;;;;;13.88;99.44;99037.06;5093505;28;19973;-58
2023/04/24 01:34:20;;;;;;;;;;;;;;;13.90;98.85;99040.50;5095624;28;19970;-58
2023/04/24 01:36:46;;;;;;;;;;;;;;;13.91;99.38;99031.53;5093955;28;19920;-58
2023/04/24 01:39:11;;;;;;;;;;;;;;;13.81;99.95;99027.69;5095453;28;20002;-58
2023/04/24 01:41:36;;;;;;;;;;;;;;;13.75;100.00;99025.41;5094555;28;20636;-58
2023/04/24 01:44:02;;;;;;;;;;;;;;;13.75;100.00;99022.72;5092757;28;20406;-58
2023/04/24 01:46:27;;;;;;;;;;;;;;;13.71;100.00;99021.19;5094708;28;19916;-58
2023/04/24 01:48:53;;;;;;;;;;;;;;;13.64;100.00;99017.19;5094079;28;19920;-58
2023/04/24 01:51:18;;;;;;;;;;;;;;;13.59;100.00;99020.13;5095171;28;19918;-58
2023/04/24 01:53:44;;;;;;;;;;;;;;;13.59;100.00;99019.28;5094477;28;19994;-58
2023/04/24 01:56:09;;;;;;;;;;;;;;;13.54;100.00;99010.69;5097374;28;19916;-58
2023/04/24 01:58:35;;;;;;;;;;;;;;;13.61;100.00;99017.34;5094020;28;19934;-57
2023/04/24 02:01:00;;;;;;;;;;;;;;;13.62;100.00;99019.09;5093574;28;19916;-58
2023/04/24 02:03:26;;;;;;;;;;;;;;;13.61;100.00;99018.22;5093653;28;19952;-58
2023/04/24 02:05:51;;;;;;;;;;;;;;;13.63;100.00;99010.97;5094216;28;20298;-57
2023/04/24 02:08:17;;;;;;;;;;;;;;;13.69;100.00;99015.09;5095120;28;20003;-58
2023/04/24 02:10:42;;;;;;;;;;;;;;;13.57;100.00;99007.81;5093114;28;20589;-58
2023/04/24 02:13:07;;;;;;;;;;;;;;;13.57;100.00;99018.50;5094198;28;19920;-58
2023/04/24 02:15:33;;;;;;;;;;;;;;;13.57;100.00;99016.69;5094543;28;19912;-58
2023/04/24 02:17:58;;;;;;;;;;;;;;;13.66;100.00;99015.25;5094371;28;19928;-58
2023/04/24 02:20:23;;;;;;;;;;;;;;;13.68;100.00;99016.03;5094955;28;19916;-58
2023/04/24 02:22:48;;;;;;;;;;;;;;;13.72;100.00;99015.75;5075108;28;20291;-58
2023/04/24 02:25:14;;;;;;;;;;;;;;;13.63;100.00;99020.78;5094240;28;19984;-58
2023/04/24 02:27:39;;;;;;;;;;;;;;;13.71;100.00;99015.84;5093806;28;20555;-58
2023/04/24 02:30:05;;;;;;;;;;;;;;;13.74;100.00;99019.19;5093456;28;19946;-58
2023/04/24 02:32:30;;;;;;;;;;;;;;;13.74;100.00;99015.69;5095454;28;19964;-58
2023/04/24 02:34:56;;;;;;;;;;;;;;;13.78;100.00;99017.19;5094166;28;19916;-58
2023/04/24 02:37:21;;;;;;;;;;;;;;;13.81;100.00;99025.88;5093690;28;19924;-58
2023/04/24 02:39:46;;;;;;;;;;;;;;;13.79;100.00;99029.63;5094694;28;19920;-59
2023/04/24 02:42:11;;;;;;;;;;;;;;;13.77;100.00;99028.84;5092864;28;19961;-58
2023/04/24 02:44:37;;;;;;;;;;;;;;;13.71;100.00;99051.44;5092612;28;19923;-58
2023/04/24 02:47:02;;;;;;;;;;;;;;;13.77;100.00;99067.09;5093396;28;19970;-59
2023/04/24 02:49:30;;;;;;;;;;;;;;;13.77;100.00;99098.34;5093264;28;19916;-59
2023/04/24 02:51:55;;;;;;;;;;;;;;;13.57;100.00;99107.56;5093067;28;20302;-59
2023/04/24 02:54:21;;;;;;;;;;;;;;;13.30;100.00;99101.13;5104437;28;19920;-58
2023/04/24 02:56:46;;;;;;;;;;;;;;;12.99;100.00;99109.16;5107963;28;20398;-58
2023/04/24 02:59:11;;;;;;;;;;;;;;;12.82;100.00;99112.78;5097281;28;19924;-58
2023/04/24 03:01:36;;;;;;;;;;;;;;;12.76;100.00;99115.78;5077172;28;19970;-58
2023/04/24 03:04:02;;;;;;;;;;;;;;;12.69;100.00;99114.41;5096155;28;19912;-58
2023/04/24 03:06:27;;;;;;;;;;;;;;;12.63;100.00;99111.22;5075214;28;19939;-58
2023/04/24 03:08:53;;;;;;;;;;;;;;;12.68;100.00;99110.03;5085840;28;20543;-58
2023/04/24 03:11:19;;;;;;;;;;;;;;;12.62;100.00;99115.69;5092658;28;20008;-57
2023/04/24 03:13:44;;;;;;;;;;;;;;;12.62;100.00;99110.34;5092229;28;19943;-57
2023/04/24 03:16:10;;;;;;;;;;;;;;;12.58;100.00;99111.47;5091746;28;20465;-57
2023/04/24 03:18:35;;;;;;;;;;;;;;;12.62;100.00;99114.84;5091159;28;19982;-57
2023/04/24 03:21:00;;;;;;;;;;;;;;;12.62;100.00;99102.34;5093799;28;19919;-58
2023/04/24 03:23:25;;;;;;;;;;;;;;;12.54;100.00;99106.38;5093513;28;20006;-58
2023/04/24 03:25:51;;;;;;;;;;;;;;;12.53;100.00;99105.53;5092783;28;19995;-58
2023/04/24 03:28:16;;;;;;;;;;;;;;;12.52;100.00;99118.94;5092953;28;19919;-58
2023/04/24 03:30:41;;;;;;;;;;;;;;;12.58;100.00;99119.47;5092787;28;19922;-58
2023/04/24 03:33:06;;;;;;;;;;;;;;;12.59;100.00;99115.84;5093288;28;19919;-58
2023/04/24 03:35:32;;;;;;;;;;;;;;;12.58;100.00;99116.81;5092071;28;20381;-58
2023/04/24 03:37:57;;;;;;;;;;;;;;;12.56;100.00;99116.03;5091320;28;20451;-58
2023/04/24 03:40:22;;;;;;;;;;;;;;;12.60;100.00;99116.72;5092858;28;19915;-58
2023/04/24 03:42:48;;;;;;;;;;;;;;;12.58;100.00;99135.47;5091839;28;19920;-58
2023/04/24 03:45:13;;;;;;;;;;;;;;;12.58;100.00;99135.47;5091959;28;20216;-58
2023/04/24 03:47:38;;;;;;;;;;;;;;;12.49;100.00;99140.44;5093549;28;19951;-57
2023/04/24 03:50:03;;;;;;;;;;;;;;;12.49;100.00;99143.97;5092153;28;19962;-58
2023/04/24 03:52:29;;;;;;;;;;;;;;;12.49;100.00;99143.09;5092477;28;19930;-58
2023/04/24 03:54:55;;;;;;;;;;;;;;;12.49;100.00;99140.44;5093237;28;19962;-58
2023/04/24 03:57:20;;;;;;;;;;;;;;;12.44;100.00;99154.03;5091809;28;19951;-58
2023/04/24 03:59:46;;;;;;;;;;;;;;;12.39;100.00;99156.06;5092954;28;19974;-58
2023/04/24 04:02:11;;;;;;;;;;;;;;;12.36;100.00;99161.56;5092240;28;19927;-57
2023/04/24 04:04:36;;;;;;;;;;;;;;;12.32;100.00;99160.00;5092661;28;19931;-58
2023/04/24 04:07:02;;;;;;;;;;;;;;;12.27;100.00;99166.53;5092846;28;19916;-58
2023/04/24 04:09:28;;;;;;;;;;;;;;;12.26;100.00;99165.66;5092387;28;19966;-58
2023/04/24 04:11:53;;;;;;;;;;;;;;;12.21;100.00;99164.22;5092599;28;19966;-58
2023/04/24 04:14:18;;;;;;;;;;;;;;;12.19;100.00;99174.94;5091946;28;20001;-58
2023/04/24 04:16:44;;;;;;;;;;;;;;;12.13;100.00;99169.94;5092011;28;19927;-58
2023/04/24 04:19:09;;;;;;;;;;;;;;;12.12;100.00;99167.34;5091586;28;19916;-58
2023/04/24 04:21:34;;;;;;;;;;;;;;;12.06;100.00;99178.34;5090682;28;19916;-58
2023/04/24 04:24:00;;;;;;;;;;;;;;;11.96;100.00;99193.91;5089206;28;19920;-58
2023/04/24 04:26:25;;;;;;;;;;;;;;;11.83;100.00;99187.50;5074427;28;19915;-58
2023/04/24 04:28:51;;;;;;;;;;;;;;;11.82;100.00;99197.31;5088940;28;19920;-58
2023/04/24 04:31:16;;;;;;;;;;;;;;;11.79;100.00;99192.09;5091876;28;19919;-58
2023/04/24 04:33:41;;;;;;;;;;;;;;;11.83;100.00;99198.16;5091690;28;20427;-58
2023/04/24 04:36:07;;;;;;;;;;;;;;;11.82;100.00;99196.44;5092707;28;19926;-58
2023/04/24 04:38:33;;;;;;;;;;;;;;;11.85;100.00;99193.59;5092946;28;19969;-58
2023/04/24 04:40:58;;;;;;;;;;;;;;;11.90;100.00;99196.91;5092010;28;19916;-58
2023/04/24 04:43:24;;;;;;;;;;;;;;;11.88;100.00;99201.44;5092451;28;19916;-58
2023/04/24 04:45:50;;;;;;;;;;;;;;;11.89;100.00;99208.50;5092656;28;19912;-58
2023/04/24 04:48:17;;;;;;;;;;;;;;;11.98;100.00;99205.38;5092467;28;19966;-58
2023/04/24 04:50:43;;;;;;;;;;;;;;;12.00;100.00;99216.81;5091830;28;20312;-58
2023/04/24 04:53:08;;;;;;;;;;;;;;;12.08;100.00;99214.63;5091630;28;19978;-58
2023/04/24 04:55:33;;;;;;;;;;;;;;;12.17;100.00;99216.81;5090867;28;19992;-58
2023/04/24 04:58:00;;;;;;;;;;;;;;;12.22;100.00;99227.25;5090652;28;20026;-58
2023/04/24 05:00:25;;;;;;;;;;;;;;;12.24;100.00;99226.22;5088998;28;19920;-58
2023/04/24 05:02:51;;;;;;;;;;;;;;;12.28;100.00;99222.47;5092631;28;20042;-58
2023/04/24 05:05:17;;;;;;;;;;;;;;;12.31;100.00;99224.97;5089445;28;19938;-58
2023/04/24 05:07:42;;;;;;;;;;;;;;;12.34;100.00;99232.78;5087119;28;19923;-58
2023/04/24 05:10:08;;;;;;;;;;;;;;;12.39;100.00;99233.41;5086070;28;19920;-58
2023/04/24 05:12:33;;;;;;;;;;;;;;;12.37;100.00;99227.28;5090570;28;20069;-58
2023/04/24 05:14:59;;;;;;;;;;;;;;;12.34;99.87;99235.47;5092015;28;19917;-58
2023/04/24 05:17:24;;;;;;;;;;;;;;;12.35;99.29;99239.00;5092361;28;19916;-58
2023/04/24 05:19:49;;;;;;;;;;;;;;;12.37;99.48;99248.63;5086460;28;20010;-58
2023/04/24 05:22:15;;;;;;;;;;;;;;;12.44;99.06;99249.16;5091970;28;19955;-58
2023/04/24 05:24:40;;;;;;;;;;;;;;;12.50;99.52;99246.19;5084189;28;19916;-58
2023/04/24 05:27:05;;;;;;;;;;;;;;;12.52;100.00;99247.84;5087129;28;19920;-58
2023/04/24 05:29:31;;;;;;;;;;;;;;;12.59;100.00;99246.56;5090941;28;19955;-58
2023/04/24 05:31:56;;;;;;;;;;;;;;;12.65;100.00;99259.56;5086751;28;19921;-58
2023/04/24 05:34:22;;;;;;;;;;;;;;;12.69;100.00;99261.16;5088249;28;19916;-58
2023/04/24 05:36:47;;;;;;;;;;;;;;;12.67;100.00;99265.69;5093654;28;19930;-58
2023/04/24 05:39:13;;;;;;;;;;;;;;;12.59;99.66;99275.91;5095516;28;20303;-58
2023/04/24 05:41:38;;;;;;;;;;;;;;;12.51;98.76;99277.25;5095518;28;19927;-58
2023/04/24 05:44:03;;;;;;;;;;;;;;;12.47;97.29;99279.22;5094435;28;20344;-58
2023/04/24 05:46:29;;;;;;;;;;;;;;;12.48;95.79;99288.09;5093795;28;19927;-58
2023/04/24 05:48:54;;;;;;;;;;;;;;;12.52;95.55;99287.84;5093950;28;20487;-58
2023/04/24 05:51:20;;;;;;;;;;;;;;;12.60;95.87;99288.31;5094241;28;19942;-58
2023/04/24 05:53:48;;;;;;;;;;;;;;;12.64;96.15;99294.34;5093084;28;19979;-58
2023/04/24 05:56:13;;;;;;;;;;;;;;;12.62;95.50;99299.75;5093928;28;19916;-58
2023/04/24 05:58:39;;;;;;;;;;;;;;;12.71;95.75;99299.28;5093180;28;19924;-58
2023/04/24 06:01:04;;;;;;;;;;;;;;;12.78;96.17;99303.34;5095121;28;19919;-58
2023/04/24 06:03:29;;;;;;;;;;;;;;;12.81;97.26;99297.88;5095237;28;19923;-58
2023/04/24 06:05:55;;;;;;;;;;;;;;;12.77;96.98;99301.63;5094241;28;19924;-58
2023/04/24 06:08:20;;;;;;;;;;;;;;;12.67;95.79;99311.06;5093998;28;19920;-58
2023/04/24 06:10:45;;;;;;;;;;;;;;;12.72;95.63;99313.47;5095129;28;19922;-58
2023/04/24 06:13:11;;;;;;;;;;;;;;;12.82;96.25;99304.91;5095632;28;19923;-58
2023/04/24 06:15:36;;;;;;;;;;;;;;;12.85;97.12;99319.94;5089950;28;20388;-58
2023/04/24 06:18:02;;;;;;;;;;;;;;;12.64;98.16;99281.88;5087483;28;20379;-58
2023/04/24 06:20:27;;;;;;;;;;;;;;;12.97;98.22;99324.59;5095713;28;20403;-58
2023/04/24 06:22:53;;;;;;;;;;;;;;;13.05;98.93;99327.75;5095206;28;19926;-58
2023/04/24 06:25:19;;;;;;;;;;;;;;;13.13;99.84;99325.53;5094932;28;19920;-58
2023/04/24 06:27:44;;;;;;;;;;;;;;;13.23;99.85;99336.59;5075986;28;19958;-58
2023/04/24 06:30:09;;;;;;;;;;;;;;;13.31;99.17;99334.38;5092678;28;19920;-58
2023/04/24 06:32:35;;;;;;;;;;;;;;;13.24;97.67;99334.69;5093317;28;19920;-58
2023/04/24 06:35:00;;;;;;;;;;;;;;;13.23;95.02;99336.59;5073763;28;19969;-58
2023/04/24 06:37:25;;;;;;;;;;;;;;;13.34;94.26;99339.53;5073320;28;19923;-58
2023/04/24 06:39:51;;;;;;;;;;;;;;;13.38;92.78;99343.78;5073444;28;20284;-58
2023/04/24 06:42:16;;;;;;;;;;;;;;;13.56;92.00;99356.97;5081433;28;19931;-58
2023/04/24 06:44:41;;;;;;;;;;;;;;;13.75;92.06;99363.03;5092851;28;19980;-58
2023/04/24 06:47:12;;;;;;;;;;;;;;;13.64;88.26;99359.25;5076452;28;20023;-58
2023/04/24 06:49:37;;;;;;;;;;;;;;;13.68;88.10;99360.78;5074781;28;19956;-58
2023/04/24 06:52:03;;;;;;;;;;;;;;;13.79;88.54;99359.22;5096722;28;19965;-59
2023/04/24 06:54:29;;;;;;;;;;;;;;;13.94;86.92;99362.84;5093623;28;19955;-58
2023/04/24 06:56:55;;;;;;;;;;;;;;;13.92;83.73;99359.44;5094942;28;19974;-58
2023/04/24 06:59:20;;;;;;;;;;;;;;;13.90;82.06;99367.53;5092316;28;19924;-58
2023/04/24 07:01:45;;;;;;;;;;;;;;;14.16;79.73;99358.88;5093390;28;20007;-58
2023/04/24 07:04:11;;;;;;;;;;;;;;;14.42;78.05;99368.97;5092776;28;19951;-58
2023/04/24 07:06:37;;;;;;;;;;;;;;;14.40;74.84;99364.66;5091746;28;19923;-58
2023/04/24 07:09:03;;;;;;;;;;;;;;;14.12;73.08;99367.16;5092784;28;19925;-58
2023/04/24 07:11:29;;;;;;;;;;;;;;;13.92;74.89;99378.16;5092355;28;19927;-58
2023/04/24 07:13:54;;;;;;;;;;;;;;;13.89;77.14;99376.47;5093488;28;19946;-58
2023/04/24 07:16:19;;;;;;;;;;;;;;;14.35;74.52;99372.94;5075724;28;19953;-58
2023/04/24 07:18:45;;;;;;;;;;;;;;;14.79;72.08;99373.03;5092259;28;19926;-58
2023/04/24 07:21:11;;;;;;;;;;;;;;;15.33;68.78;99379.50;5091660;28;19920;-58
2023/04/24 07:23:36;;;;;;;;;;;;;;;15.39;67.11;99381.81;5091935;28;20630;-58
2023/04/24 07:26:01;;;;;;;;;;;;;;;15.89;66.70;99389.38;5092282;28;20006;-58
2023/04/24 07:28:30;;;;;;;;;;;;;;;16.31;63.59;99386.59;5091503;28;20356;-58
2023/04/24 07:30:56;;;;;;;;;;;;;;;15.90;61.52;99396.47;5090082;28;20907;-58
2023/04/24 07:33:21;;;;;;;;;;;;;;;15.88;58.74;99384.97;5091334;28;19916;-58
2023/04/24 07:35:46;;;;;;;;;;;;;;;15.25;59.18;99404.09;5090766;28;19920;-58
2023/04/24 07:38:12;;;;;;;;;;;;;;;14.63;59.34;99403.47;5092119;28;19923;-58
2023/04/24 07:40:37;;;;;;;;;;;;;;;14.39;62.55;99408.41;5090503;28;19920;-58
2023/04/24 07:43:03;;;;;;;;;;;;;;;14.03;63.91;99407.81;5092197;28;19912;-58
2023/04/24 07:45:28;;;;;;;;;;;;;;;13.86;64.37;99413.22;5091702;28;19920;-58
2023/04/24 07:47:53;;;;;;;;;;;;;;;13.80;66.51;99413.56;5092239;28;19940;-58
2023/04/24 07:50:19;;;;;;;;;;;;;;;13.77;67.57;99421.75;5091705;28;19923;-58
2023/04/24 07:52:44;;;;;;;;;;;;;;;13.75;66.33;99427.19;5095054;28;19958;-58
2023/04/24 07:55:09;;;;;;;;;;;;;;;13.93;68.72;99427.97;5074421;28;20306;-58
2023/04/24 07:57:35;;;;;;;;;;;;;;;14.02;68.00;99430.16;5091544;28;19920;-58
2023/04/24 08:00:00;;;;;;;;;;;;;;;14.04;69.04;99438.94;5091308;28;19924;-58
2023/04/24 08:02:26;;;;;;;;;;;;;;;13.98;68.62;99436.59;5082322;28;19926;-58
2023/04/24 08:04:53;;;;;;;;;;;;;;;13.85;67.32;99443.59;5070751;28;20300;-58
2023/04/24 08:07:18;;;;;;;;;;;;;;;13.73;66.97;99441.56;5072223;28;19928;-58
2023/04/24 08:09:43;;;;;;;;;;;;;;;13.78;67.90;99455.56;5071470;28;20037;-58
2023/04/24 08:12:09;;;;;;;;;;;;;;;13.77;68.69;99453.84;5071733;28;19969;-58
2023/04/24 08:14:34;;;;;;;;;;;;;;;13.66;65.72;99456.19;5072681;28;19923;-58
2023/04/24 08:17:01;;;;;;;;;;;;;;;13.56;66.89;99453.16;5071520;28;19916;-57
2023/04/24 08:19:26;;;;;;;;;;;;;;;13.49;66.08;99461.59;5071920;28;19925;-57
2023/04/24 08:21:51;;;;;;;;;;;;;;;13.45;66.67;99454.69;5072643;28;20054;-58
2023/04/24 08:24:16;;;;;;;;;;;;;;;13.47;65.58;99463.50;5071429;28;19923;-58
2023/04/24 08:26:42;;;;;;;;;;;;;;;13.76;67.83;99473.47;5070573;28;19985;-57
2023/04/24 08:29:07;;;;;;;;;;;;;;;13.97;67.28;99475.00;5070745;28;19923;-57
2023/04/24 08:31:33;;;;;;;;;;;;;;;14.04;66.41;99471.91;5071689;28;19920;-58
2023/04/24 08:33:59;;;;;;;;;;;;;;;14.04;64.22;99482.59;5072060;28;19913;-57
2023/04/24 08:36:25;;;;;;;;;;;;;;;14.13;65.78;99478.56;5071037;28;19919;-57
2023/04/24 08:38:51;;;;;;;;;;;;;;;14.07;62.74;99485.09;5071864;28;19924;-58
2023/04/24 08:41:17;;;;;;;;;;;;;;;14.35;65.85;99479.09;5069366;28;19916;-58
2023/04/24 08:43:43;;;;;;;;;;;;;;;14.68;62.44;99482.53;5071824;28;19983;-57
2023/04/24 08:46:10;;;;;;;;;;;;;;;14.86;63.07;99486.81;5072322;28;20024;-57
2023/04/24 08:48:35;;;;;;;;;;;;;;;14.94;60.18;99489.06;5070050;28;19920;-57
2023/04/24 08:51:02;;;;;;;;;;;;;;;15.65;62.46;99501.69;5071315;28;19931;-58
2023/04/24 08:53:27;;;;;;;;;;;;;;;16.29;59.49;99498.56;5057545;28;20299;-58
2023/04/24 08:55:54;;;;;;;;;;;;;;;16.09;56.67;99501.63;5070372;28;19921;-57
2023/04/24 08:58:19;;;;;;;;;;;;;;;16.07;58.46;99501.72;5070697;28;19992;-58
2023/04/24 09:00:46;;;;;;;;;;;;;;;15.92;58.12;99499.13;5086522;28;19978;-58
2023/04/24 09:03:13;;;;;;;;;;;;;;;16.00;58.83;99497.69;5091852;28;19916;-58
2023/04/24 09:05:40;;;;;;;;;;;;;;;16.22;58.72;99502.59;5087229;28;19974;-58
2023/04/24 09:08:06;;;;;;;;;;;;;;;16.28;59.76;99502.19;5092004;28;20012;-58
2023/04/24 09:10:34;;;;;;;;;;;;;;;15.97;60.08;99505.06;5075364;28;20348;-58
2023/04/24 09:13:01;;;;;;;;;;;;;;;15.41;57.80;99498.72;5094761;28;20414;-58
2023/04/24 09:15:27;;;;;;;;;;;;;;;15.32;61.16;99509.94;5095556;28;19923;-57
2023/04/24 09:17:52;;;;;;;;;;;;;;;15.18;59.35;99507.22;5095087;28;19920;-58
2023/04/24 09:20:18;;;;;;;;;;;;;;;15.01;60.19;99514.50;5095292;28;20372;-57
2023/04/24 09:22:44;;;;;;;;;;;;;;;14.92;60.80;99518.63;5095243;28;19995;-58
2023/04/24 09:25:12;;;;;;;;;;;;;;;14.95;63.68;99522.91;5093856;28;19923;-58
2023/04/24 09:27:41;;;;;;;;;;;;;;;14.98;63.52;99520.06;5094902;28;19923;-58
2023/04/24 09:30:07;;;;;;;;;;;;;;;14.72;61.74;99521.56;5093967;28;19916;-57
2023/04/24 09:32:32;;;;;;;;;;;;;;;14.59;63.12;99533.06;5093873;28;19916;-57
2023/04/24 09:35:10;;;;;;;;;;;;;;;14.42;63.63;99529.53;5096107;28;19916;-57
2023/04/24 09:37:37;;;;;;;;;;;;;;;14.30;64.59;99537.34;5095409;28;19926;-57
2023/04/24 09:40:12;;;;;;;;;;;;;;;14.31;65.01;99539.09;5095938;28;19949;-58
2023/04/24 09:42:37;;;;;;;;;;;;;;;14.44;65.69;99541.00;5094351;28;19959;-58
2023/04/24 09:45:03;;;;;;;;;;;;;;;14.66;65.73;99545.16;5095611;28;20453;-57
2023/04/24 09:47:35;;;;;;;;;;;;;;;15.09;65.98;99545.25;5096036;28;20550;-57
2023/04/24 09:50:08;;;;;;;;;;;;;;;15.72;64.07;99541.47;5095841;28;19947;-57
2023/04/24 09:52:34;;;;;;;;;;;;;;;16.22;61.63;99545.53;5094685;28;19920;-57
2023/04/24 09:54:59;;;;;;;;;;;;;;;16.42;61.21;99553.19;5096113;28;19920;-57
2023/04/24 09:57:24;;;;;;;;;;;;;;;16.40;59.85;99544.34;5091021;28;19954;-58
2023/04/24 09:59:53;;;;;;;;;;;;;;;16.03;59.58;99544.97;5075968;28;19924;-57
2023/04/24 10:02:19;;;;;;;;;;;;;;;15.56;59.74;99547.84;5094078;28;19916;-57
2023/04/24 10:04:54;;;;;;;;;;;;;;;15.18;60.94;99550.09;5095202;28;20011;-58
2023/04/24 10:07:19;;;;;;;;;;;;;;;14.50;61.88;99554.03;5086495;28;19923;-57
2023/04/24 10:09:44;;;;;;;;;;;;;;;14.35;64.45;99560.22;5087737;28;19916;-57
2023/04/24 10:12:10;;;;;;;;;;;;;;;14.49;64.83;99551.44;5095284;28;20015;-58
2023/04/24 10:14:36;;;;;;;;;;;;;;;14.62;62.12;99565.88;5094256;28;19922;-57
2023/04/24 10:17:02;;;;;;;;;;;;;;;15.02;60.61;99557.31;5095420;28;19927;-57
2023/04/24 10:19:29;;;;;;;;;;;;;;;15.74;61.58;99546.75;5095061;28;19920;-57
2023/04/24 10:21:55;;;;;;;;;;;;;;;16.11;55.87;99553.38;5092126;28;19940;-57
2023/04/24 10:24:21;;;;;;;;;;;;;;;16.65;59.04;99552.59;5095305;28;19920;-57
2023/04/24 10:26:49;;;;;;;;;;;;;;;17.41;56.19;99551.97;5095083;28;19942;-58
2023/04/24 10:29:16;;;;;;;;;;;;;;;17.62;51.36;99547.84;5093991;28;19920;-58
2023/04/24 10:31:45;;;;;;;;;;;;;;;17.12;52.72;99558.41;5094164;28;19963;-57
2023/04/24 10:34:10;;;;;;;;;;;;;;;16.69;55.38;99557.66;5092253;28;19912;-57
2023/04/24 10:36:38;;;;;;;;;;;;;;;16.17;54.69;99572.66;5095568;28;19920;-58
2023/04/24 10:39:06;;;;;;;;;;;;;;;15.90;55.53;99565.44;5092403;28;20372;-58
2023/04/24 10:41:31;;;;;;;;;;;;;;;15.52;56.75;99565.94;5092079;28;19924;-58
2023/04/24 10:44:13;;;;;;;;;;;;;;;15.40;57.99;99571.16;5095636;28;20469;-58
2023/04/24 10:46:42;;;;;;;;;;;;;;;15.18;58.94;99571.53;5092459;28;19916;-58
2023/04/24 10:49:08;;;;;;;;;;;;;;;14.95;60.43;99571.13;5092255;28;19916;-58
2023/04/24 10:51:50;;;;;;;;;;;;;;;15.14;61.84;99578.00;5093634;28;19912;-58
2023/04/24 10:54:26;;;;;;;;;;;;;;;15.56;61.46;99577.34;5093315;28;20299;-58
2023/04/24 10:56:52;;;;;;;;;;;;;;;15.72;60.53;99578.13;5094256;28;20459;-58
2023/04/24 10:59:25;;;;;;;;;;;;;;;15.74;59.91;99578.91;5092804;28;19986;-58
2023/04/24 11:01:55;;;;;;;;;;;;;;;15.52;58.68;99579.34;5090837;28;19920;-58
2023/04/24 11:04:30;;;;;;;;;;;;;;;15.56;60.50;99586.25;5093507;28;19970;-58
2023/04/24 11:06:55;;;;;;;;;;;;;;;15.15;61.92;99589.59;5093531;28;19923;-58
2023/04/24 11:09:21;;;;;;;;;;;;;;;15.11;62.47;99586.22;5092730;28;20026;-57
2023/04/24 11:11:46;;;;;;;;;;;;;;;14.72;65.60;99593.84;5093701;28;20022;-58
2023/04/24 11:14:15;;;;;;;;;;;;;;;14.66;65.42;99599.56;5075293;28;19915;-57
2023/04/24 11:16:44;;;;;;;;;;;;;;;14.50;68.58;99602.22;5094358;28;19916;-58
2023/04/24 11:19:16;;;;;;;;;;;;;;;14.27;68.20;99599.91;5092779;28;20014;-57
2023/04/24 11:21:41;;;;;;;;;;;;;;;14.19;71.01;99602.13;5093944;28;19924;-58
2023/04/24 11:24:25;;;;;;;;;;;;;;;14.27;72.61;99607.06;5095162;28;20349;-58
2023/04/24 11:26:52;;;;;;;;;;;;;;;14.24;72.82;99612.56;5094889;28;19942;-58
2023/04/24 11:29:19;;;;;;;;;;;;;;;14.38;73.10;99615.41;5093461;28;19927;-58
2023/04/24 11:31:51;;;;;;;;;;;;;;;14.50;71.44;99609.38;5094935;28;19927;-58
2023/04/24 11:34:17;;;;;;;;;;;;;;;14.57;71.55;99616.13;5094616;28;19912;-58
2023/04/24 11:36:42;;;;;;;;;;;;;;;14.63;70.37;99623.78;5095116;28;19939;-58
2023/04/24 11:39:08;;;;;;;;;;;;;;;14.76;70.23;99622.16;5094343;28;19943;-58
2023/04/24 11:41:34;;;;;;;;;;;;;;;14.72;68.93;99625.97;5092134;28;19927;-58
2023/04/24 11:44:00;;;;;;;;;;;;;;;14.65;70.38;99627.25;5093226;28;20372;-58
2023/04/24 11:46:29;;;;;;;;;;;;;;;14.56;68.50;99633.13;5092114;28;19916;-58
2023/04/24 11:48:55;;;;;;;;;;;;;;;14.58;69.88;99633.91;5092775;28;19930;-58
2023/04/24 11:51:21;;;;;;;;;;;;;;;14.46;69.07;99635.44;5092915;28;19916;-58
2023/04/24 11:53:47;;;;;;;;;;;;;;;14.29;70.20;99645.31;5093035;28;19916;-57
2023/04/24 11:56:16;;;;;;;;;;;;;;;14.27;70.81;99644.53;5091383;28;19916;-58
2023/04/24 11:58:42;;;;;;;;;;;;;;;14.10;72.33;99636.53;5091879;28;20023;-58
2023/04/24 12:01:07;;;;;;;;;;;;;;;13.98;74.53;99653.19;5091698;28;19999;-58
2023/04/24 12:03:32;;;;;;;;;;;;;;;13.99;74.69;99652.25;5092029;28;19916;-58
2023/04/24 12:06:10;;;;;;;;;;;;;;;13.89;74.60;99654.53;5091176;28;19919;-58
2023/04/24 12:08:36;;;;;;;;;;;;;;;13.72;74.77;99646.50;5094263;28;19916;-58
2023/04/24 12:11:01;;;;;;;;;;;;;;;13.66;76.04;99635.28;5091733;28;19927;-58
2023/04/24 12:13:27;;;;;;;;;;;;;;;13.71;77.31;99638.56;5091499;28;19923;-58
2023/04/24 12:15:52;;;;;;;;;;;;;;;13.79;76.50;99631.06;5093159;28;19926;-58
2023/04/24 12:18:18;;;;;;;;;;;;;;;14.10;76.15;99631.19;5091182;28;19920;-58
2023/04/24 12:20:43;;;;;;;;;;;;;;;14.35;74.62;99631.59;5092415;28;19916;-58
2023/04/24 12:23:08;;;;;;;;;;;;;;;14.55;72.99;99638.56;5091881;28;19989;-58
2023/04/24 12:25:34;;;;;;;;;;;;;;;14.45;73.97;99638.19;5092032;28;20282;-58
2023/04/24 12:28:02;;;;;;;;;;;;;;;14.55;73.19;99650.13;5092763;28;19923;-58
2023/04/24 12:30:29;;;;;;;;;;;;;;;14.51;71.76;99637.88;5099566;28;19915;-58
2023/04/24 12:32:54;;;;;;;;;;;;;;;14.68;71.35;99639.63;5096798;28;19923;-58
2023/04/24 12:35:21;;;;;;;;;;;;;;;14.78;69.29;99633.66;5093272;28;19920;-58
2023/04/24 12:37:46;;;;;;;;;;;;;;;14.98;69.50;99644.13;5100418;28;19919;-58